createdAt,value
2022-10-17T00:01:51.560Z,152752.25
2022-10-17T00:04:21.692Z,152745.81
2022-10-17T00:06:51.920Z,152745.81
2022-10-17T00:09:21.936Z,152734.16
2022-10-17T00:11:51.900Z,152730.28
2022-10-17T00:14:21.924Z,152717.31
2022-10-17T00:16:54.568Z,152713.44
2022-10-17T00:19:24.663Z,152712.16
2022-10-17T00:21:55.192Z,152705.69
2022-10-17T00:24:25.532Z,152696.63
2022-10-17T00:26:55.517Z,152697.91
2022-10-17T00:29:25.618Z,152681.13
2022-10-17T00:32:01.189Z,152683.69
2022-10-17T00:34:32.520Z,152675.94
2022-10-17T00:37:02.609Z,152673.34
2022-10-17T00:39:32.616Z,152665.59
2022-10-17T00:42:02.643Z,152653.94
2022-10-17T00:45:02.471Z,152647.47
2022-10-17T00:47:36.603Z,152642.31
2022-10-17T00:50:07.828Z,152641.03
2022-10-17T00:52:38.097Z,152639.75
2022-10-17T00:55:13.941Z,152639.75
2022-10-17T00:57:46.504Z,152630.69
2022-10-17T01:00:18.454Z,152631.97
2022-10-17T01:02:51.782Z,152628.06
2022-10-17T01:05:22.644Z,152622.91
2022-10-17T01:07:55.340Z,152629.34
2022-10-17T01:10:27.770Z,152628.06
2022-10-17T01:13:09.777Z,152615.19
2022-10-17T01:15:49.892Z,152613.84
2022-10-17T01:18:35.704Z,152612.56
2022-10-17T01:21:28.588Z,152619.03
2022-10-17T01:24:27.420Z,152613.84
2022-10-17T01:27:13.461Z,152606.13
2022-10-17T01:30:00.484Z,152600.94
2022-10-17T01:32:40.275Z,152604.78
2022-10-17T01:35:16.184Z,152598.34
2022-10-17T01:40:47.423Z,152578.94
2022-10-17T01:43:23.965Z,152571.19
2022-10-17T01:45:59.064Z,152567.31
2022-10-17T01:48:38.541Z,152562.16
2022-10-17T01:51:14.261Z,152554.38
2022-10-17T01:53:50.185Z,152550.47
2022-10-17T01:56:22.600Z,152541.47
2022-10-17T01:58:56.797Z,152531.13
2022-10-17T02:01:29.129Z,152529.78
2022-10-17T02:04:03.631Z,152528.50
2022-10-17T02:06:37.815Z,152518.19
2022-10-17T02:09:24.281Z,152516.91
2022-10-17T02:12:06.967Z,152510.41
2022-10-17T02:14:49.516Z,152505.22
2022-10-17T02:17:33.548Z,152492.34
2022-10-17T02:20:14.040Z,152489.72
2022-10-17T02:22:52.377Z,152488.44
2022-10-17T02:25:30.650Z,152483.28
2022-10-17T02:28:09.789Z,152482.00
2022-10-17T02:30:48.731Z,152467.78
2022-10-17T02:33:26.434Z,152463.84
2022-10-17T02:36:07.680Z,152465.13
2022-10-17T02:38:38.541Z,152459.94
2022-10-17T02:41:12.333Z,152447.03
2022-10-17T02:43:45.436Z,152440.56
2022-10-17T02:46:20.979Z,152438.00
2022-10-17T02:48:54.536Z,152434.09
2022-10-17T02:51:35.012Z,152423.75
2022-10-17T02:54:12.865Z,152426.31
2022-10-17T02:56:49.952Z,152422.47
2022-10-17T02:59:24.253Z,152418.59
2022-10-17T03:01:55.364Z,152412.09
2022-10-17T03:04:25.413Z,152399.22
2022-10-17T03:06:58.312Z,152401.75
2022-10-17T03:09:28.654Z,152397.94
2022-10-17T03:11:58.877Z,152397.94
2022-10-17T03:14:28.934Z,152395.31
2022-10-17T03:16:59.199Z,152391.44
2022-10-17T03:19:29.898Z,152392.75
2022-10-17T03:22:02.609Z,152388.88
2022-10-17T03:24:33.583Z,152386.25
2022-10-17T03:27:03.676Z,152374.66
2022-10-17T03:29:33.898Z,152375.94
2022-10-17T03:32:05.408Z,152364.31
2022-10-17T03:34:35.614Z,152365.59
2022-10-17T03:37:08.393Z,152363.03
2022-10-17T03:39:40.308Z,152364.31
2022-10-17T03:42:10.350Z,152355.25
2022-10-17T03:44:40.481Z,152355.25
2022-10-17T03:47:13.389Z,152347.50
2022-10-17T03:49:44.498Z,152339.75
2022-10-17T03:52:18.521Z,152332.00
2022-10-17T03:54:48.653Z,152337.16
2022-10-17T03:57:19.582Z,152332.00
2022-10-17T03:59:50.142Z,152330.72
2022-10-17T04:02:22.552Z,152330.72
2022-10-17T04:04:53.207Z,152330.72
2022-10-17T04:10:18.257Z,152319.09
2022-10-17T04:12:48.712Z,152306.16
2022-10-17T04:15:19.887Z,152306.16
2022-10-17T04:17:49.995Z,152303.56
2022-10-17T04:20:20.611Z,152303.56
2022-10-17T04:22:53.266Z,152291.94
2022-10-17T04:25:23.308Z,152301.00
2022-10-17T04:27:55.053Z,152299.72
2022-10-17T04:30:29.254Z,152288.06
2022-10-17T04:32:59.357Z,152281.59
2022-10-17T04:35:31.313Z,152286.78
2022-10-17T04:38:08.331Z,152267.38
2022-10-17T04:40:39.699Z,152259.66
2022-10-17T04:43:09.832Z,152259.66
2022-10-17T04:45:41.170Z,152262.22
2022-10-17T04:48:11.197Z,152259.66
2022-10-17T04:50:41.715Z,152255.78
2022-10-17T04:53:35.270Z,152246.72
2022-10-17T04:56:11.239Z,152245.44
2022-10-17T04:58:42.787Z,152245.44
2022-10-17T05:01:16.444Z,152240.28
2022-10-17T05:03:50.083Z,152244.13
2022-10-17T05:06:22.401Z,152241.56
2022-10-17T05:09:13.220Z,152241.56
2022-10-17T05:11:45.229Z,152238.94
2022-10-17T05:14:16.172Z,152236.41
2022-10-17T05:16:46.274Z,152235.13
2022-10-17T05:19:17.402Z,152236.41
2022-10-17T05:21:51.308Z,152237.69
2022-10-17T05:24:24.257Z,152238.94
2022-10-17T05:26:54.369Z,152240.28
2022-10-17T05:29:24.797Z,152240.28
2022-10-17T05:34:32.535Z,152248.00
2022-10-17T05:37:02.554Z,152257.06
2022-10-17T05:39:35.867Z,152260.94
2022-10-17T05:42:07.311Z,152263.50
2022-10-17T05:44:39.458Z,152270.00
2022-10-17T05:47:11.189Z,152289.38
2022-10-17T05:49:46.356Z,152295.81
2022-10-17T05:52:20.835Z,152332.00
2022-10-17T05:55:08.774Z,152361.72
2022-10-17T05:57:39.863Z,152363.03
2022-10-17T06:00:15.941Z,152384.97
2022-10-17T06:02:49.027Z,152394.03
2022-10-17T06:05:21.678Z,152417.31
2022-10-17T06:07:52.737Z,152421.16
2022-10-17T06:10:26.909Z,152440.56
2022-10-17T06:12:58.086Z,152439.28
2022-10-17T06:15:34.420Z,152448.31
2022-10-17T06:18:09.257Z,152479.38
2022-10-17T06:20:43.832Z,152500.06
2022-10-17T06:23:17.278Z,152532.41
2022-10-17T06:26:05.708Z,152575.03
2022-10-17T06:28:36.463Z,152597.06
2022-10-17T06:31:10.533Z,152664.31
2022-10-17T06:33:40.946Z,152716.03
2022-10-17T06:36:14.743Z,152761.31
2022-10-17T06:38:46.330Z,152797.53
2022-10-17T06:41:39.762Z,152854.50
2022-10-17T06:44:11.986Z,152880.38
2022-10-17T06:47:05.417Z,152929.56
2022-10-17T06:49:35.904Z,153016.34
2022-10-17T06:52:26.916Z,153042.25
2022-10-17T06:55:18.308Z,153079.81
2022-10-17T06:58:15.193Z,153139.38
2022-10-17T07:01:03.330Z,153174.34
2022-10-17T07:03:34.278Z,153211.88
2022-10-17T07:06:04.582Z,153278.00
2022-10-17T07:08:35.158Z,153288.34
2022-10-17T07:11:12.860Z,153329.81
2022-10-17T07:13:46.059Z,153359.66
2022-10-17T07:16:16.793Z,153392.09
2022-10-17T07:18:52.498Z,153455.56
2022-10-17T07:21:23.415Z,153487.97
2022-10-17T07:23:53.749Z,153497.06
2022-10-17T07:26:24.670Z,153552.81
2022-10-17T07:28:58.619Z,153554.09
2022-10-17T07:31:37.382Z,153617.63
2022-10-17T07:34:07.648Z,153641.00
2022-10-17T07:36:38.085Z,153663.03
2022-10-17T07:39:10.299Z,153648.75
2022-10-17T07:41:41.711Z,153679.91
2022-10-17T07:44:15.430Z,153720.19
2022-10-17T07:46:49.794Z,153759.09
2022-10-17T07:49:21.299Z,153779.84
2022-10-17T07:51:52.183Z,153804.50
2022-10-17T07:54:22.549Z,153855.09
2022-10-17T07:56:52.579Z,153874.56
2022-10-17T07:59:25.208Z,153860.28
2022-10-17T08:01:59.639Z,153916.09
2022-10-17T08:04:32.550Z,153968.03
2022-10-17T08:07:19.602Z,154004.38
2022-10-17T08:09:52.712Z,153999.19
2022-10-17T08:12:23.091Z,154047.28
2022-10-17T08:14:55.835Z,154070.63
2022-10-17T08:17:25.874Z,154096.63
2022-10-17T08:19:56.077Z,154116.09
2022-10-17T08:22:26.903Z,154148.53
2022-10-17T08:24:57.416Z,154179.69
2022-10-17T08:27:29.036Z,154214.81
2022-10-17T08:30:01.901Z,154244.69
2022-10-17T08:32:32.712Z,154255.06
2022-10-17T08:35:03.219Z,154287.53
2022-10-17T08:37:33.722Z,154327.84
2022-10-17T08:40:04.205Z,154374.66
2022-10-17T08:42:48.842Z,154379.84
2022-10-17T08:45:31.749Z,154396.72
2022-10-17T08:48:04.050Z,154420.13
2022-10-17T08:50:39.314Z,154446.13
2022-10-17T08:53:16.203Z,154450.03
2022-10-17T08:55:50.185Z,154502.00
2022-10-17T08:58:23.849Z,154516.28
2022-10-17T09:01:11.966Z,154531.91
2022-10-17T09:04:04.341Z,154564.41
2022-10-17T09:06:38.442Z,154585.22
2022-10-17T09:09:25.378Z,154604.75
2022-10-17T09:12:18.460Z,154613.88
2022-10-17T09:15:02.525Z,154625.56
2022-10-17T09:17:45.434Z,154645.06
2022-10-17T09:20:19.216Z,154682.81
2022-10-17T09:22:54.372Z,154690.56
2022-10-17T09:25:24.817Z,154710.09
2022-10-17T09:27:57.373Z,154746.53
2022-10-17T09:30:45.257Z,154776.47
2022-10-17T09:33:35.280Z,154814.16
2022-10-17T09:36:16.362Z,154832.38
2022-10-17T09:38:50.852Z,154853.25
2022-10-17T09:44:23.110Z,154913.09
2022-10-17T09:47:04.785Z,154933.91
2022-10-17T09:49:39.308Z,154952.13
2022-10-17T09:52:15.249Z,154991.19
2022-10-17T09:54:48.910Z,155002.88
2022-10-17T09:57:20.926Z,155019.84
2022-10-17T10:00:00.501Z,155061.47
2022-10-17T10:02:34.137Z,155083.56
2022-10-17T10:05:11.552Z,155118.78
2022-10-17T10:07:42.959Z,155140.94
2022-10-17T10:10:30.112Z,155163.03
2022-10-17T10:13:09.968Z,155176.09
2022-10-17T10:15:42.967Z,155224.28
2022-10-17T10:18:35.897Z,155232.06
2022-10-17T10:21:11.617Z,155232.06
2022-10-17T10:23:43.256Z,155268.56
2022-10-17T10:26:26.550Z,155251.59
2022-10-17T10:29:01.001Z,155298.53
2022-10-17T10:31:37.520Z,155308.94
2022-10-17T10:34:21.121Z,155359.78
2022-10-17T10:37:02.683Z,155342.81
2022-10-17T10:39:44.996Z,155394.94
2022-10-17T10:42:25.556Z,155417.06
2022-10-17T10:44:57.966Z,155435.31
2022-10-17T10:47:31.046Z,155467.94
2022-10-17T10:50:21.530Z,155470.50
2022-10-17T10:53:03.777Z,155487.44
2022-10-17T10:55:39.599Z,155461.38
2022-10-17T10:58:26.376Z,155520.03
2022-10-17T11:00:59.130Z,155555.25
2022-10-17T11:03:37.001Z,155520.03
2022-10-17T11:06:15.887Z,155572.19
2022-10-17T11:08:53.463Z,155548.72
2022-10-17T11:11:32.796Z,155585.25
2022-10-17T11:14:13.006Z,155595.66
2022-10-17T11:16:50.841Z,155650.41
2022-10-17T11:19:28.372Z,155660.84
2022-10-17T11:22:08.622Z,155673.88
2022-10-17T11:24:47.753Z,155683.03
2022-10-17T11:27:18.213Z,155688.22
2022-10-17T11:29:49.028Z,155686.94
2022-10-17T11:32:25.914Z,155736.44
2022-10-17T11:35:00.912Z,155739.06
2022-10-17T11:37:37.370Z,155710.38
2022-10-17T11:40:22.028Z,155757.34
2022-10-17T11:42:59.828Z,155713.00
2022-10-17T11:45:37.247Z,155711.66
2022-10-17T11:48:16.154Z,155688.22
2022-10-17T11:53:50.773Z,155786.03
2022-10-17T11:56:29.850Z,155797.81
2022-10-17T11:59:12.678Z,155838.22
2022-10-17T12:01:49.496Z,155800.38
2022-10-17T12:04:29.558Z,155796.53
2022-10-17T12:07:12.183Z,155808.25
2022-10-17T12:10:00.545Z,155827.81
2022-10-17T12:12:36.063Z,155789.97
2022-10-17T12:15:31.910Z,155795.19
2022-10-17T12:18:04.474Z,155778.25
2022-10-17T12:20:39.559Z,155786.03
2022-10-17T12:23:29.000Z,155766.47
2022-10-17T12:26:04.771Z,155739.06
2022-10-17T12:28:45.588Z,155741.69
2022-10-17T12:31:33.302Z,155705.16
2022-10-17T12:34:06.261Z,155727.34
2022-10-17T12:36:47.037Z,155732.56
2022-10-17T12:39:49.506Z,155714.28
2022-10-17T12:42:49.489Z,155726.00
2022-10-17T12:45:52.028Z,155715.59
2022-10-17T12:49:02.325Z,155706.44
2022-10-17T12:51:37.383Z,155707.78
2022-10-17T12:54:15.580Z,155727.34
2022-10-17T12:56:48.762Z,155719.50
2022-10-17T12:59:21.807Z,155714.28
2022-10-17T13:02:00.986Z,155718.22
2022-10-17T13:04:32.888Z,155705.16
2022-10-17T13:07:03.487Z,155690.81
2022-10-17T13:09:36.168Z,155690.81
2022-10-17T13:12:09.143Z,155699.94
2022-10-17T13:14:44.623Z,155673.88
2022-10-17T13:17:28.389Z,155680.38
2022-10-17T13:19:59.479Z,155655.63
2022-10-17T13:22:32.509Z,155608.72
2022-10-17T13:25:11.718Z,155615.22
2022-10-17T13:27:41.939Z,155573.53
2022-10-17T13:30:31.099Z,155589.16
2022-10-17T13:33:06.698Z,155572.19
2022-10-17T13:35:59.464Z,155550.06
2022-10-17T13:38:34.170Z,155552.69
2022-10-17T13:41:33.684Z,155531.75
2022-10-17T13:44:00.223Z,155514.81
2022-10-17T13:46:39.271Z,155518.75
2022-10-17T13:49:35.919Z,155478.34
2022-10-17T13:52:08.878Z,155458.81
2022-10-17T13:54:41.499Z,155457.47
2022-10-17T13:57:22.387Z,155460.09
2022-10-17T13:59:56.633Z,155448.38
2022-10-17T14:02:28.896Z,155431.41
2022-10-17T14:05:18.929Z,155427.50
2022-10-17T14:08:15.129Z,155408.00
2022-10-17T14:10:47.764Z,155389.75
2022-10-17T14:13:25.297Z,155385.81
2022-10-17T14:15:56.985Z,155376.69
2022-10-17T14:18:35.795Z,155361.06
2022-10-17T14:24:17.082Z,155335.03
2022-10-17T14:26:51.709Z,155341.53
2022-10-17T14:29:27.834Z,155335.03
2022-10-17T14:32:05.838Z,155308.94
2022-10-17T14:34:41.092Z,155276.34
2022-10-17T14:37:28.100Z,155238.56
2022-10-17T14:39:59.658Z,155219.06
2022-10-17T14:42:30.001Z,155213.88
2022-10-17T14:45:10.067Z,155203.41
2022-10-17T14:47:44.426Z,155202.13
2022-10-17T14:50:28.390Z,155185.22
2022-10-17T14:53:09.294Z,155143.50
2022-10-17T14:55:41.383Z,155150.06
2022-10-17T14:58:21.728Z,155129.22
2022-10-17T15:00:55.746Z,155103.16
2022-10-17T15:03:25.998Z,155095.38
2022-10-17T15:05:58.790Z,155083.56
2022-10-17T15:08:31.530Z,155060.19
2022-10-17T15:11:01.943Z,155048.44
2022-10-17T15:13:38.538Z,155025.03
2022-10-17T15:16:18.799Z,154996.41
2022-10-17T15:18:49.040Z,154978.16
2022-10-17T15:21:33.297Z,154931.31
2022-10-17T15:24:11.267Z,154906.59
2022-10-17T15:26:43.846Z,154893.56
2022-10-17T15:29:18.704Z,154874.03
2022-10-17T15:31:49.469Z,154845.38
2022-10-17T15:34:20.597Z,154831.09
2022-10-17T15:36:54.345Z,154795.97
2022-10-17T15:39:27.954Z,154766.00
2022-10-17T15:41:59.090Z,154742.63
2022-10-17T15:44:29.251Z,154736.09
2022-10-17T15:47:00.566Z,154707.50
2022-10-17T15:49:30.777Z,154673.69
2022-10-17T15:52:01.346Z,154651.56
2022-10-17T15:54:34.548Z,154613.88
2022-10-17T15:57:04.999Z,154589.13
2022-10-17T15:59:38.208Z,154572.19
2022-10-17T16:02:16.066Z,154538.44
2022-10-17T16:04:46.704Z,154517.59
2022-10-17T16:07:18.029Z,154509.81
2022-10-17T16:09:51.405Z,154489.03
2022-10-17T16:12:27.610Z,154473.44
2022-10-17T16:14:58.155Z,154450.03
2022-10-17T16:17:28.810Z,154427.91
2022-10-17T16:19:59.250Z,154399.34
2022-10-17T16:22:37.661Z,154379.84
2022-10-17T16:25:19.658Z,154362.94
2022-10-17T16:27:51.706Z,154333.03
2022-10-17T16:30:23.554Z,154309.66
2022-10-17T16:32:58.019Z,154313.50
2022-10-17T16:35:36.512Z,154295.34
2022-10-17T16:38:08.203Z,154266.75
2022-10-17T16:40:42.600Z,154255.06
2022-10-17T16:43:16.649Z,154236.88
2022-10-17T16:45:48.329Z,154220.00
2022-10-17T16:48:19.391Z,154203.09
2022-10-17T16:50:49.540Z,154174.50
2022-10-17T16:53:22.356Z,154179.69
2022-10-17T16:56:07.829Z,154162.84
2022-10-17T16:58:38.042Z,154138.16
2022-10-17T17:01:14.042Z,154118.66
2022-10-17T17:03:47.790Z,154086.22
2022-10-17T17:06:20.948Z,154055.03
2022-10-17T17:08:54.455Z,154039.47
2022-10-17T17:11:30.055Z,154003.06
2022-10-17T17:14:02.422Z,153979.69
2022-10-17T17:16:35.519Z,153961.50
2022-10-17T17:19:08.779Z,153965.41
2022-10-17T17:21:39.058Z,153945.94
2022-10-17T17:24:09.877Z,153926.47
2022-10-17T17:26:47.539Z,153913.50
2022-10-17T17:29:17.753Z,153904.41
2022-10-17T17:31:48.006Z,153903.13
2022-10-17T17:34:18.627Z,153918.72
2022-10-17T17:36:55.513Z,153929.09
2022-10-17T17:39:27.170Z,153921.28
2022-10-17T17:42:00.067Z,153908.31
2022-10-17T17:44:30.118Z,153930.38
2022-10-17T17:47:00.228Z,153929.09
2022-10-17T17:49:30.352Z,153922.59
2022-10-17T17:52:00.437Z,153908.31
2022-10-17T17:54:30.946Z,153901.81
2022-10-17T17:57:04.313Z,153900.50
2022-10-17T17:59:34.512Z,153901.81
2022-10-17T18:02:07.006Z,153907.00
2022-10-17T18:04:37.285Z,153910.91
2022-10-17T18:07:07.486Z,153899.22
2022-10-17T18:09:38.641Z,153912.22
2022-10-17T18:12:12.347Z,153883.66
2022-10-17T18:14:43.268Z,153912.22
2022-10-17T18:17:13.588Z,153869.38
2022-10-17T18:20:08.249Z,153843.44
2022-10-17T18:22:45.895Z,153820.06
2022-10-17T18:25:16.420Z,153825.25
2022-10-17T18:27:51.269Z,153817.44
2022-10-17T18:30:25.499Z,153817.44
2022-10-17T18:32:57.781Z,153818.78
2022-10-17T18:35:28.095Z,153795.41
2022-10-17T18:37:58.126Z,153786.31
2022-10-17T18:40:28.447Z,153782.41
2022-10-17T18:43:01.280Z,153759.09
2022-10-17T18:45:34.336Z,153752.59
2022-10-17T18:48:04.871Z,153757.78
2022-10-17T18:50:35.340Z,153735.75
2022-10-17T18:53:06.176Z,153747.38
2022-10-17T18:55:36.331Z,153744.81
2022-10-17T18:58:11.296Z,153751.28
2022-10-17T19:00:42.175Z,153733.13
2022-10-17T19:03:12.718Z,153727.94
2022-10-17T19:05:45.310Z,153702.00
2022-10-17T19:08:16.191Z,153694.19
2022-10-17T19:10:46.727Z,153678.59
2022-10-17T19:13:21.583Z,153665.66
2022-10-17T19:15:52.661Z,153652.66
2022-10-17T19:18:22.738Z,153633.19
2022-10-17T19:20:53.265Z,153604.72
2022-10-17T19:23:23.463Z,153595.63
2022-10-17T19:25:54.961Z,153585.25
2022-10-17T19:28:30.073Z,153572.25
2022-10-17T19:31:00.289Z,153564.47
2022-10-17T19:33:30.821Z,153556.72
2022-10-17T19:36:03.071Z,153539.81
2022-10-17T19:38:33.548Z,153548.91
2022-10-17T19:41:04.353Z,153528.16
2022-10-17T19:43:38.870Z,153515.19
2022-10-17T19:46:11.811Z,153515.19
2022-10-17T19:48:42.036Z,153497.06
2022-10-17T19:51:15.288Z,153481.50
2022-10-17T19:53:46.093Z,153465.97
2022-10-17T19:56:18.713Z,153450.38
2022-10-17T19:58:54.322Z,153434.81
2022-10-17T20:01:27.575Z,153419.28
2022-10-17T20:03:58.892Z,153401.13
2022-10-17T20:06:30.219Z,153388.19
2022-10-17T20:09:00.513Z,153371.31
2022-10-17T20:11:32.551Z,153358.38
2022-10-17T20:14:06.121Z,153353.19
2022-10-17T20:16:39.049Z,153337.59
2022-10-17T20:19:11.411Z,153319.44
2022-10-17T20:21:43.502Z,153312.97
2022-10-17T20:24:16.935Z,153307.78
2022-10-17T20:26:47.620Z,153297.38
2022-10-17T20:29:24.598Z,153287.03
2022-10-17T20:31:56.875Z,153274.09
2022-10-17T20:34:27.859Z,153263.75
2022-10-17T20:37:01.333Z,153254.66
2022-10-17T20:39:32.198Z,153235.22
2022-10-17T20:42:02.681Z,153217.06
2022-10-17T20:44:36.155Z,153189.88
2022-10-17T20:47:15.956Z,153180.81
2022-10-17T20:49:46.662Z,153167.84
2022-10-17T20:52:17.192Z,153160.09
2022-10-17T20:54:47.345Z,153154.91
2022-10-17T20:57:17.600Z,153149.75
2022-10-17T20:59:50.636Z,153139.38
2022-10-17T21:02:20.855Z,153132.88
2022-10-17T21:04:51.180Z,153123.81
2022-10-17T21:07:22.485Z,153117.34
2022-10-17T21:09:52.528Z,153099.19
2022-10-17T21:12:31.338Z,153086.28
2022-10-17T21:15:12.629Z,153078.47
2022-10-17T21:17:43.219Z,153069.41
2022-10-17T21:20:15.162Z,153061.66
2022-10-17T21:22:45.566Z,153051.31
2022-10-17T21:25:16.223Z,153029.28
2022-10-17T21:27:46.752Z,153033.16
2022-10-17T21:30:21.216Z,153029.28
2022-10-17T21:32:57.332Z,153021.53
2022-10-17T21:35:27.827Z,153016.34
2022-10-17T21:37:57.851Z,153009.84
2022-10-17T21:40:27.875Z,153002.09
2022-10-17T21:42:57.948Z,152993.03
2022-10-17T21:45:38.644Z,152980.06
2022-10-17T21:48:13.262Z,152955.47
2022-10-17T21:50:44.515Z,152950.31
2022-10-17T21:53:17.512Z,152951.63
2022-10-17T21:55:47.561Z,152939.91
2022-10-17T21:58:18.048Z,152924.38
2022-10-17T22:00:52.657Z,152916.63
2022-10-17T22:03:23.087Z,152914.03
2022-10-17T22:06:06.915Z,152910.13
2022-10-17T22:08:43.744Z,152910.13
2022-10-17T22:11:16.113Z,152897.22
2022-10-17T22:13:46.615Z,152895.88
2022-10-17T22:16:19.918Z,152885.53
2022-10-17T22:18:49.937Z,152885.53
2022-10-17T22:21:25.443Z,152875.19
2022-10-17T22:23:59.606Z,152868.72
2022-10-17T22:26:30.583Z,152854.50
2022-10-17T22:29:00.867Z,152844.13
2022-10-17T22:31:33.763Z,152844.13
2022-10-17T22:34:05.331Z,152833.78
2022-10-17T22:36:36.290Z,152831.19
2022-10-17T22:39:07.349Z,152829.91
2022-10-17T22:41:37.383Z,152844.13
2022-10-17T22:44:08.419Z,152836.34
2022-10-17T22:46:42.976Z,152823.44
2022-10-17T22:49:13.089Z,152804.03
2022-10-17T22:51:43.492Z,152801.41
2022-10-17T22:54:13.564Z,152797.53
2022-10-17T22:56:43.771Z,152789.78
2022-10-17T22:59:13.780Z,152784.63
2022-10-17T23:01:47.279Z,152785.91
2022-10-17T23:04:19.922Z,152774.28
2022-10-17T23:06:49.953Z,152771.66
2022-10-17T23:09:20.079Z,152762.59
2022-10-17T23:11:50.597Z,152750.97
2022-10-17T23:14:21.007Z,152740.63
2022-10-17T23:16:53.665Z,152731.56
2022-10-17T23:19:23.716Z,152725.09
2022-10-17T23:21:54.256Z,152721.22
2022-10-17T23:24:24.260Z,152717.31
2022-10-17T23:26:54.543Z,152708.25
2022-10-17T23:29:25.130Z,152694.06
2022-10-17T23:31:59.697Z,152687.56
2022-10-17T23:34:31.545Z,152678.50
2022-10-17T23:37:01.718Z,152670.78
2022-10-17T23:39:32.065Z,152664.31
2022-10-17T23:42:02.288Z,152661.72
2022-10-17T23:44:32.321Z,152653.94
2022-10-17T23:47:05.274Z,152647.47
2022-10-17T23:49:35.331Z,152646.19
2022-10-17T23:52:05.568Z,152638.41
2022-10-17T23:54:36.229Z,152631.97
2022-10-17T23:57:06.712Z,152624.19
2022-10-17T23:59:36.918Z,152617.75
